Aeroporto :
LOGIN :

Iscrizione | Disclaimer

   EN    FR    IT 

 










Sommario :    VFR   VFR Marginale   IFR   IFR Intensivo   IFR Molto Intensivo
Visibilità : 
Base nubi : 
>= 8 km
>= 3000ft
5 / 8 km
1000 / 3000 ft
1500m / 5 km
500 / 1000 ft
800 / 1500m
200 / 500 ft
< 800m
< 200 ft
Simboli :   Temporali  Nebbia  Neve Forte  Precipitazioni Forti  Vento > 20 kt
SIGMETs :   Varie  Temporali  Ghiacco  Turbolenza  Onda orograficha  Ceneri Vulcaniche






- Altitudine del aeroporto : 645 ft
- Codice IATA : DLE


LFGJ - Dole Tavaux

ULTIMO METAR :
  • 171000Z AUTO 20001KT 5000 BR NSC 02/02 Q1007 BECMG BKN006

METARs OBSOLETI :
  • 170930Z AUTO 00000KT 4700 BR NSC 01/01 Q1007 BECMG 7000 NSW BKN006
  • 170900Z AUTO 08003KT 050V130 5000 BR NSC 01/01 Q1007 TEMPO BKN003
  • 170830Z AUTO 35007KT 6000 NSC 01/01 Q1006 TEMPO BKN003
  • 170800Z AUTO 34006KT 6000 NSC 01/00 Q1007 TEMPO 4000 BR BKN003
  • 170730Z AUTO 01004KT 320V020 5000 BR NSC 00/M00 Q1007 NOSIG
  • 170700Z AUTO 01004KT 7000 NSC 00/M00 Q1007 NOSIG

TAF AMD TAF LFGJ
Valido dal 17 a 09 ore il 17 a 18 ore UTC


170909Z 1709/1718 35004KT 7000 NSC
PROB40
TEMPO 1709/1711 4000 BR BKN003
BECMG 1711/1713 VRB04KT BKN006
TEMPO 1714/1718 2500 -RA BR BKN003



MetMap, La meteo Aeronautica in un colpo d'occhio ! - Copyright ORBIFLY Dicembre 2007 - Disclaimer

ORBIFLY MET'MAP TEAM :

Programmazione e sviluppo : Alexandra Zaïnal
Concezione e sviluppo : Baudouin d'Aumeries
Co-Programmazione e sviluppo : Marc-Olivier Méhu
Supporto tecnico e logistico : Manuel Goepfert
Aiuto per la traduzione : Arnaldo La Scala

Contatto : metmap@orbifly.com




FONTI E CREDITI :

   NOAA